Terminal Aerodrome Forecast
Issued by NWS Boston, MA

Home | Current Version | Previous Version | Text Only | Print | Product List | Glossary On
Versions: 1 2 3 4 5 6 7 8 9 10 11 12 13 14 15 16 17 18 19 20
000
FTUS41 KBOX 292005 AAB
TAFORH
TAF AMD
KORH 292005Z 2920/3018 08006KT P6SM OVC009
     FM300300 18005KT 3SM BR BKN008
     FM300700 23006KT 2SM -SHRA BR OVC003
     FM301200 24006KT 1SM SHRA BR OVC003=

USA.gov is the U.S. government's official web portal to all federal, state and local government web resources and services.